Time;durP1;ratioP1;P1;durP2;ratioP2;P2;SDS_P1;SDS_P2;PMS_P1;PMS_P2;Temp;Humidity;BMP_temperature;BMP_pressure;BME280_temperature;BME280_humidity;BME280_pressure;Samples;Min_cycle;Max_cycle;Signal;HPM_P1;HPM_P2
2022/03/29 00:00:50;;;;;;;18.17;12.73;;;9.00;99.90;;;;;;5073316;28;20210;-78
2022/03/29 00:03:16;;;;;;;17.77;12.00;;;8.90;99.90;;;;;;5081061;28;20182;-78
2022/03/29 00:05:41;;;;;;;16.50;11.77;;;8.90;99.90;;;;;;5072005;28;20215;-78
2022/03/29 00:08:07;;;;;;;18.87;11.87;;;8.80;99.90;;;;;;5071522;28;20213;-77
2022/03/29 00:10:36;;;;;;;19.30;11.93;;;8.80;99.90;;;;;;5072364;28;20206;-77
2022/03/29 00:13:02;;;;;;;18.67;12.17;;;8.80;99.90;;;;;;5065004;28;20306;-81
2022/03/29 00:15:28;;;;;;;19.60;12.83;;;8.70;99.90;;;;;;5063984;28;20304;-77
2022/03/29 00:17:54;;;;;;;17.50;11.33;;;8.70;99.90;;;;;;5069690;28;20273;-78
2022/03/29 00:20:21;;;;;;;20.67;13.07;;;8.60;99.90;;;;;;5070131;28;20203;-78
2022/03/29 00:22:47;;;;;;;18.23;12.43;;;8.60;99.90;;;;;;5062631;28;20249;-77
2022/03/29 00:25:13;;;;;;;17.70;11.23;;;8.60;99.90;;;;;;5063914;28;20211;-78
2022/03/29 00:27:39;;;;;;;20.77;11.83;;;8.60;99.90;;;;;;5068692;28;20601;-77
2022/03/29 00:30:07;;;;;;;18.03;11.67;;;8.60;99.90;;;;;;5066453;28;20167;-76
2022/03/29 00:32:33;;;;;;;16.07;11.47;;;8.60;99.90;;;;;;5071379;28;20269;-77
2022/03/29 00:34:58;;;;;;;19.37;11.60;;;8.80;99.90;;;;;;5070299;28;20207;-78
2022/03/29 00:37:24;;;;;;;19.00;11.37;;;8.80;99.90;;;;;;5060758;28;20580;-77
2022/03/29 00:39:49;;;;;;;20.20;12.00;;;8.70;99.90;;;;;;5071013;28;20215;-77
2022/03/29 00:42:15;;;;;;;19.17;11.70;;;8.60;99.90;;;;;;5072254;28;20178;-78
2022/03/29 00:44:41;;;;;;;20.40;11.30;;;8.60;99.90;;;;;;5070731;28;20214;-78
2022/03/29 00:47:06;;;;;;;18.97;11.47;;;8.70;99.90;;;;;;5071197;28;20218;-77
2022/03/29 00:49:32;;;;;;;19.00;12.10;;;8.80;99.90;;;;;;5070481;28;20214;-77
2022/03/29 00:52:01;;;;;;;19.87;12.20;;;8.80;99.90;;;;;;5073582;28;20222;-78
2022/03/29 00:54:28;;;;;;;16.67;11.23;;;8.80;99.90;;;;;;5075319;28;20179;-78
2022/03/29 00:56:57;;;;;;;23.03;11.67;;;8.80;99.90;;;;;;5075140;28;20605;-77
2022/03/29 00:59:24;;;;;;;21.83;12.77;;;8.90;99.90;;;;;;5069424;28;20219;-75
2022/03/29 01:01:50;;;;;;;15.70;11.30;;;9.00;99.90;;;;;;5070997;28;20225;-77
2022/03/29 01:04:15;;;;;;;17.27;11.03;;;8.90;99.90;;;;;;5071088;28;20207;-78
2022/03/29 01:06:43;;;;;;;16.67;11.60;;;8.90;99.90;;;;;;5070881;28;20203;-77
2022/03/29 01:09:10;;;;;;;18.33;12.13;;;8.90;99.90;;;;;;5069591;28;20171;-76
2022/03/29 01:11:36;;;;;;;17.53;11.70;;;8.90;99.90;;;;;;5062509;28;20294;-76
2022/03/29 01:14:03;;;;;;;16.23;11.10;;;8.90;99.90;;;;;;5070505;28;20203;-77
2022/03/29 01:19:16;;;;;;;18.83;11.87;;;8.60;99.90;;;;;;5070463;28;20253;-77
2022/03/29 01:21:58;;;;;;;21.07;12.73;;;8.60;99.90;;;;;;5069220;28;20194;-77
2022/03/29 01:24:25;;;;;;;19.37;12.70;;;8.60;99.90;;;;;;5071221;28;20171;-77
2022/03/29 01:26:52;;;;;;;22.63;13.17;;;8.50;99.90;;;;;;5061301;28;20225;-77
2022/03/29 01:29:18;;;;;;;19.50;12.60;;;8.50;99.90;;;;;;5073364;28;20663;-77
2022/03/29 01:31:44;;;;;;;20.67;12.33;;;8.60;99.90;;;;;;5074543;28;20203;-77
2022/03/29 01:34:10;;;;;;;20.30;12.77;;;8.70;99.90;;;;;;5074584;28;20214;-75
2022/03/29 01:36:36;;;;;;;21.23;12.47;;;8.70;99.90;;;;;;5081654;28;20219;-76
2022/03/29 01:39:03;;;;;;;21.83;13.27;;;8.80;99.90;;;;;;5073245;28;20256;-77
2022/03/29 01:41:29;;;;;;;18.77;12.43;;;8.80;99.90;;;;;;5073423;28;20214;-78
2022/03/29 01:43:54;;;;;;;21.77;13.30;;;8.80;99.90;;;;;;5072704;28;20198;-77
2022/03/29 01:46:20;;;;;;;22.23;14.03;;;8.80;99.90;;;;;;5072935;28;20264;-77
2022/03/29 01:48:45;;;;;;;23.63;13.40;;;8.70;99.90;;;;;;5073497;28;20642;-77
2022/03/29 01:51:12;;;;;;;22.33;14.13;;;8.80;99.90;;;;;;5074709;28;20246;-76
2022/03/29 01:53:39;;;;;;;22.27;14.10;;;8.70;99.90;;;;;;5073958;28;20692;-78
2022/03/29 01:56:05;;;;;;;19.80;12.63;;;8.70;99.90;;;;;;5074094;28;20226;-77
2022/03/29 01:58:30;;;;;;;22.37;13.10;;;8.70;99.90;;;;;;5073382;28;20293;-77
2022/03/29 02:00:56;;;;;;;21.17;13.77;;;8.70;99.90;;;;;;5073066;28;20230;-77
2022/03/29 02:03:22;;;;;;;19.63;12.63;;;8.70;99.90;;;;;;5074562;28;20175;-75
2022/03/29 02:05:48;;;;;;;20.53;13.53;;;8.70;99.90;;;;;;5072926;28;20691;-77
2022/03/29 02:08:14;;;;;;;20.57;13.67;;;8.70;99.90;;;;;;5072066;28;20676;-77
2022/03/29 02:10:40;;;;;;;23.13;13.90;;;8.80;99.90;;;;;;5072645;28;20219;-76
2022/03/29 02:13:09;;;;;;;20.57;13.53;;;8.90;99.90;;;;;;5073716;28;20214;-77
2022/03/29 02:18:01;;;;;;;24.30;14.57;;;8.90;99.90;;;;;;5067079;22;20308;-76
2022/03/29 02:20:26;;;;;;;21.03;13.20;;;8.80;99.90;;;;;;5053844;28;20203;-77
2022/03/29 02:22:52;;;;;;;22.13;13.00;;;8.80;99.90;;;;;;5054295;28;20231;-76
2022/03/29 02:25:17;;;;;;;24.50;14.70;;;8.80;99.90;;;;;;5046668;28;20212;-76
2022/03/29 02:27:45;;;;;;;19.67;13.10;;;8.60;99.90;;;;;;5028800;28;20569;-76
2022/03/29 02:30:13;;;;;;;21.27;14.07;;;8.60;99.90;;;;;;5033905;28;20656;-76
2022/03/29 02:32:39;;;;;;;23.80;14.03;;;8.60;99.90;;;;;;5033052;28;20220;-76
2022/03/29 02:35:05;;;;;;;18.37;13.10;;;8.60;99.90;;;;;;5033877;28;20215;-76
2022/03/29 02:37:30;;;;;;;22.93;14.07;;;8.70;99.90;;;;;;5032265;28;20212;-76
2022/03/29 02:39:56;;;;;;;22.17;14.17;;;8.80;99.90;;;;;;5031028;28;20315;-76
2022/03/29 02:42:21;;;;;;;27.97;14.97;;;8.70;99.90;;;;;;5033617;28;20192;-76
2022/03/29 02:44:47;;;;;;;21.47;14.30;;;8.80;99.90;;;;;;5033355;28;20299;-76
2022/03/29 02:47:12;;;;;;;24.90;15.53;;;8.70;99.90;;;;;;5033419;28;20216;-77
2022/03/29 02:49:38;;;;;;;21.70;14.63;;;8.60;99.90;;;;;;5032410;28;20677;-76
2022/03/29 02:52:04;;;;;;;24.27;14.97;;;8.70;99.90;;;;;;5032897;28;20224;-76
2022/03/29 02:54:30;;;;;;;23.03;14.73;;;8.60;99.90;;;;;;5033352;28;20204;-76
2022/03/29 02:56:55;;;;;;;25.70;14.60;;;8.60;99.90;;;;;;5039538;28;20209;-77
2022/03/29 02:59:21;;;;;;;26.97;16.70;;;8.60;99.90;;;;;;5032268;28;20200;-76
2022/03/29 03:01:46;;;;;;;28.53;16.50;;;8.60;99.90;;;;;;5051736;28;20298;-76
2022/03/29 03:04:14;;;;;;;25.33;15.50;;;8.60;99.90;;;;;;5044580;28;20770;-76
2022/03/29 03:06:40;;;;;;;28.33;17.13;;;8.70;99.90;;;;;;5031380;28;20772;-75
2022/03/29 03:09:06;;;;;;;28.23;15.73;;;8.50;99.90;;;;;;5034850;28;20172;-77
2022/03/29 03:11:32;;;;;;;26.00;15.53;;;8.60;99.90;;;;;;5032756;28;20208;-76
2022/03/29 03:13:57;;;;;;;28.03;15.47;;;8.60;99.90;;;;;;5032774;28;20220;-76
2022/03/29 03:16:23;;;;;;;29.13;16.30;;;8.50;99.90;;;;;;5040806;28;20254;-76
2022/03/29 03:18:48;;;;;;;24.63;16.67;;;8.40;99.90;;;;;;5050653;28;20562;-76
2022/03/29 03:21:14;;;;;;;24.43;15.47;;;8.40;99.90;;;;;;5051554;28;20176;-76
2022/03/29 03:23:39;;;;;;;28.90;17.73;;;8.40;99.90;;;;;;5051012;28;20264;-76
2022/03/29 03:26:05;;;;;;;26.17;16.70;;;8.60;99.90;;;;;;5043891;28;20590;-77
2022/03/29 03:28:31;;;;;;;24.87;15.83;;;8.60;99.90;;;;;;5032577;28;20215;-77
2022/03/29 03:30:56;;;;;;;26.37;16.57;;;8.50;99.90;;;;;;5036072;28;20208;-77
2022/03/29 03:33:22;;;;;;;24.80;15.50;;;8.50;99.90;;;;;;5031634;28;20665;-77
2022/03/29 03:35:48;;;;;;;27.20;15.77;;;8.50;99.90;;;;;;5050844;28;20278;-77
2022/03/29 03:38:13;;;;;;;27.73;16.60;;;8.50;99.90;;;;;;5049090;28;20199;-76
2022/03/29 03:40:41;;;;;;;23.97;16.00;;;8.40;99.90;;;;;;5051274;28;20215;-77
2022/03/29 03:43:07;;;;;;;30.37;16.07;;;8.50;99.90;;;;;;5044497;28;20676;-77
2022/03/29 03:45:32;;;;;;;27.97;16.00;;;8.60;99.90;;;;;;5032055;28;20172;-77
2022/03/29 03:47:58;;;;;;;25.80;16.03;;;8.70;99.90;;;;;;5032005;28;20731;-77
2022/03/29 03:50:23;;;;;;;26.37;16.00;;;8.60;99.90;;;;;;5031783;28;20291;-77
2022/03/29 03:52:53;;;;;;;24.80;16.07;;;8.50;99.90;;;;;;5035072;28;20211;-77
2022/03/29 03:55:19;;;;;;;25.67;16.07;;;8.50;99.90;;;;;;5049968;28;20203;-76
2022/03/29 03:57:45;;;;;;;29.10;16.20;;;8.50;99.90;;;;;;5031127;28;20188;-76
2022/03/29 04:00:11;;;;;;;23.83;15.97;;;8.50;99.90;;;;;;5031995;28;20255;-76
2022/03/29 04:02:38;;;;;;;26.70;15.33;;;8.50;99.90;;;;;;5030349;28;20270;-76
2022/03/29 04:05:05;;;;;;;27.87;15.70;;;8.50;99.90;;;;;;5034869;28;20207;-76
2022/03/29 04:07:31;;;;;;;29.07;17.13;;;8.50;99.90;;;;;;5049529;28;20216;-76
2022/03/29 04:09:56;;;;;;;26.00;15.90;;;8.40;99.90;;;;;;5049710;28;20226;-77
2022/03/29 04:12:22;;;;;;;26.03;16.10;;;8.40;99.90;;;;;;5042109;28;20215;-77
2022/03/29 04:14:47;;;;;;;27.53;15.93;;;8.30;99.90;;;;;;5035396;28;20690;-77
2022/03/29 04:17:13;;;;;;;26.70;16.07;;;8.30;99.90;;;;;;5051232;28;20216;-77
2022/03/29 04:19:39;;;;;;;23.87;16.40;;;8.30;99.90;;;;;;5039995;28;20212;-77
2022/03/29 04:22:05;;;;;;;30.13;16.20;;;8.20;99.90;;;;;;5031560;28;20592;-76
2022/03/29 04:24:30;;;;;;;25.53;16.43;;;8.10;99.90;;;;;;5030027;28;20180;-76
2022/03/29 04:26:56;;;;;;;29.77;16.00;;;8.20;99.90;;;;;;5028757;28;20565;-76
2022/03/29 04:29:22;;;;;;;26.97;16.57;;;8.10;99.90;;;;;;5030493;28;20677;-77
2022/03/29 04:31:48;;;;;;;27.03;16.77;;;8.00;99.90;;;;;;5029951;28;20587;-76
2022/03/29 04:34:14;;;;;;;25.67;15.93;;;8.10;99.90;;;;;;5031484;28;20204;-76
2022/03/29 04:36:40;;;;;;;29.27;16.93;;;8.20;99.90;;;;;;5049979;28;20278;-77
2022/03/29 04:39:05;;;;;;;26.43;16.40;;;8.20;99.90;;;;;;5049331;28;20175;-76
2022/03/29 04:41:31;;;;;;;29.73;17.07;;;8.30;99.90;;;;;;5030635;28;20642;-76
2022/03/29 04:43:57;;;;;;;29.77;16.13;;;8.20;99.90;;;;;;5030349;28;20287;-76
2022/03/29 04:46:23;;;;;;;28.77;17.57;;;8.30;99.90;;;;;;5029804;28;20212;-76
2022/03/29 04:48:52;;;;;;;27.63;17.03;;;8.20;99.90;;;;;;5029053;28;20176;-76
2022/03/29 04:51:17;;;;;;;32.60;18.80;;;8.20;99.90;;;;;;5031862;28;20549;-76
2022/03/29 04:53:43;;;;;;;25.57;16.47;;;8.30;99.90;;;;;;5029853;28;20208;-76
2022/03/29 04:56:08;;;;;;;29.47;17.33;;;8.30;99.90;;;;;;5031002;28;20255;-76
2022/03/29 04:58:34;;;;;;;29.33;18.27;;;8.40;99.90;;;;;;5030352;28;20219;-76
2022/03/29 05:00:59;;;;;;;26.60;16.40;;;8.30;99.90;;;;;;5031300;28;20258;-76
2022/03/29 05:03:25;;;;;;;26.23;16.63;;;8.30;99.90;;;;;;5030191;28;20183;-76
2022/03/29 05:05:51;;;;;;;28.47;16.30;;;8.30;99.90;;;;;;5031087;28;20208;-76
2022/03/29 05:08:16;;;;;;;28.53;17.63;;;8.30;99.90;;;;;;5030484;28;20212;-76
2022/03/29 05:10:42;;;;;;;26.87;17.10;;;8.30;99.90;;;;;;5031794;28;20277;-77
2022/03/29 05:13:09;;;;;;;29.13;16.97;;;8.20;99.90;;;;;;5031992;28;20246;-78
2022/03/29 05:15:35;;;;;;;25.67;17.00;;;8.20;99.90;;;;;;5031605;28;20169;-77
2022/03/29 05:18:00;;;;;;;28.83;16.77;;;8.00;99.90;;;;;;5032465;28;20219;-77
2022/03/29 05:20:26;;;;;;;33.20;18.07;;;8.10;99.90;;;;;;5030823;28;20204;-77
2022/03/29 05:22:55;;;;;;;32.37;17.27;;;8.10;99.90;;;;;;5033475;28;20201;-77
2022/03/29 05:25:22;;;;;;;29.23;18.13;;;8.10;99.90;;;;;;5033087;28;20212;-77
2022/03/29 05:27:48;;;;;;;29.33;17.70;;;8.20;99.90;;;;;;5023704;28;20249;-77
2022/03/29 05:30:14;;;;;;;31.80;19.00;;;8.30;99.90;;;;;;5033217;28;20255;-77
2022/03/29 05:32:40;;;;;;;33.23;17.90;;;8.30;99.90;;;;;;5032617;28;20255;-77
2022/03/29 05:35:08;;;;;;;33.50;18.30;;;8.30;99.90;;;;;;5033061;28;20611;-78
2022/03/29 05:37:34;;;;;;;30.70;17.97;;;8.40;99.90;;;;;;5031373;28;20219;-77
2022/03/29 05:40:00;;;;;;;26.53;16.10;;;8.30;99.90;;;;;;5032434;28;20204;-77
2022/03/29 05:42:25;;;;;;;33.67;18.63;;;8.20;99.90;;;;;;5031497;28;20183;-78
2022/03/29 05:44:51;;;;;;;32.43;17.50;;;8.10;99.90;;;;;;5031281;28;20223;-78
2022/03/29 05:50:00;;;;;;;30.07;18.27;;;8.20;99.90;;;;;;5024750;28;20633;-76
2022/03/29 05:52:26;;;;;;;35.93;19.13;;;8.20;99.90;;;;;;5029678;28;20212;-77
2022/03/29 05:54:52;;;;;;;37.87;19.93;;;8.30;99.90;;;;;;5030622;28;20851;-77
2022/03/29 05:57:19;;;;;;;36.40;18.37;;;8.30;99.90;;;;;;5031024;28;20685;-77
2022/03/29 05:59:45;;;;;;;37.53;20.63;;;8.10;99.90;;;;;;5028491;28;20200;-77
2022/03/29 06:02:11;;;;;;;35.00;19.00;;;8.10;99.90;;;;;;5031133;28;20229;-77
2022/03/29 06:04:39;;;;;;;31.50;18.87;;;8.20;99.90;;;;;;5032077;28;20208;-77
2022/03/29 06:07:06;;;;;;;33.10;18.43;;;8.30;99.90;;;;;;5029167;28;20296;-77
2022/03/29 06:09:35;;;;;;;37.00;19.33;;;8.40;99.90;;;;;;5029492;28;20180;-77
2022/03/29 06:12:02;;;;;;;35.80;20.83;;;8.40;99.90;;;;;;5030192;28;20723;-77
2022/03/29 06:14:27;;;;;;;51.97;20.50;;;8.50;99.90;;;;;;5031019;28;20241;-76
2022/03/29 06:16:55;;;;;;;37.10;20.47;;;8.50;99.90;;;;;;5034546;28;20208;-77
2022/03/29 06:19:20;;;;;;;41.07;19.90;;;8.40;99.90;;;;;;5043449;28;20208;-77
2022/03/29 06:21:46;;;;;;;35.57;18.77;;;8.50;99.90;;;;;;5033775;28;20171;-78
2022/03/29 06:24:13;;;;;;;35.00;18.97;;;8.50;99.90;;;;;;5033660;28;20200;-76
2022/03/29 06:26:39;;;;;;;35.60;19.50;;;8.50;99.90;;;;;;5042721;28;20241;-76
2022/03/29 06:29:09;;;;;;;37.53;18.63;;;8.40;99.90;;;;;;5032035;28;20307;-76
2022/03/29 06:31:35;;;;;;;36.70;18.37;;;8.30;99.90;;;;;;5033890;28;20216;-76
2022/03/29 06:34:01;;;;;;;41.83;18.57;;;8.40;99.90;;;;;;5032453;28;20231;-76
2022/03/29 06:36:27;;;;;;;38.90;18.70;;;8.50;99.90;;;;;;5033883;28;20196;-76
2022/03/29 06:38:53;;;;;;;38.27;19.70;;;8.60;99.90;;;;;;5033270;28;20271;-77
2022/03/29 06:41:19;;;;;;;32.27;17.23;;;8.70;99.90;;;;;;5032376;28;20219;-77
2022/03/29 06:43:44;;;;;;;31.57;17.73;;;8.80;99.90;;;;;;5033669;28;20673;-77
2022/03/29 06:46:10;;;;;;;35.00;18.47;;;8.90;99.90;;;;;;5033690;28;20772;-77
2022/03/29 06:48:36;;;;;;;40.80;19.17;;;8.90;99.90;;;;;;5031941;28;20177;-79
2022/03/29 06:51:02;;;;;;;33.83;18.83;;;8.90;99.90;;;;;;5035280;28;20653;-77
2022/03/29 06:53:28;;;;;;;35.53;19.70;;;9.20;99.90;;;;;;5035859;28;20213;-77
2022/03/29 06:55:53;;;;;;;49.47;20.50;;;9.40;99.90;;;;;;5043637;28;20311;-76
2022/03/29 06:58:20;;;;;;;32.10;17.77;;;9.70;99.90;;;;;;5043904;28;20216;-76
2022/03/29 07:00:46;;;;;;;35.87;17.97;;;9.80;99.90;;;;;;5046395;28;20176;-76
2022/03/29 07:03:11;;;;;;;35.90;17.87;;;9.70;99.90;;;;;;5058689;28;20563;-77
2022/03/29 07:05:40;;;;;;;33.83;17.03;;;9.80;99.90;;;;;;5042280;28;20223;-77
2022/03/29 07:08:06;;;;;;;29.90;16.53;;;10.00;99.90;;;;;;5039949;28;20219;-77
2022/03/29 07:13:16;;;;;;;27.70;17.03;;;10.70;99.90;;;;;;5035998;28;20708;-77
2022/03/29 07:15:42;;;;;;;36.53;17.20;;;10.70;99.90;;;;;;5034565;28;20173;-77
2022/03/29 07:18:07;;;;;;;30.23;16.20;;;10.60;99.90;;;;;;5035217;28;20212;-78
2022/03/29 07:20:33;;;;;;;31.00;16.30;;;10.30;99.90;;;;;;5037111;28;20210;-78
2022/03/29 07:22:59;;;;;;;28.63;15.07;;;10.20;99.90;;;;;;5037065;28;20586;-77
2022/03/29 07:25:27;;;;;;;25.53;14.77;;;10.10;99.90;;;;;;5036451;28;20235;-76
2022/03/29 07:27:53;;;;;;;27.13;14.27;;;10.10;99.90;;;;;;5034099;28;20213;-77
2022/03/29 07:30:20;;;;;;;24.67;14.00;;;10.70;99.90;;;;;;5034868;28;20290;-77
2022/03/29 07:32:49;;;;;;;22.63;13.40;;;10.80;99.90;;;;;;5025479;28;20215;-77
2022/03/29 07:35:16;;;;;;;28.63;14.70;;;10.60;99.90;;;;;;5032911;28;20282;-77
2022/03/29 07:37:42;;;;;;;26.70;14.20;;;10.70;99.90;;;;;;5032839;28;20693;-76
2022/03/29 07:40:09;;;;;;;28.83;14.17;;;10.80;99.90;;;;;;5035829;28;20215;-76
2022/03/29 07:42:36;;;;;;;26.97;13.53;;;10.90;99.90;;;;;;5044787;28;20190;-76
2022/03/29 07:45:06;;;;;;;22.10;13.20;;;10.80;99.90;;;;;;5040186;28;20176;-77
2022/03/29 07:47:32;;;;;;;27.97;13.87;;;10.90;99.90;;;;;;5037594;28;20208;-77
2022/03/29 07:49:57;;;;;;;23.17;13.63;;;11.10;99.90;;;;;;5043190;28;20204;-77
2022/03/29 07:52:23;;;;;;;27.57;13.40;;;11.00;99.90;;;;;;5042391;28;20223;-77
2022/03/29 07:54:49;;;;;;;22.70;13.60;;;11.20;99.90;;;;;;5043416;28;20247;-76
2022/03/29 07:57:14;;;;;;;25.57;12.93;;;11.70;99.90;;;;;;5043180;28;20260;-78
2022/03/29 07:59:40;;;;;;;21.80;12.90;;;12.00;99.90;;;;;;5045049;28;20228;-77
2022/03/29 08:02:06;;;;;;;25.70;12.43;;;12.10;99.90;;;;;;5037338;28;20246;-76
2022/03/29 08:04:32;;;;;;;25.13;14.43;;;11.90;99.90;;;;;;5034358;28;20212;-76
2022/03/29 08:06:59;;;;;;;24.37;12.70;;;11.50;99.90;;;;;;5037021;28;20224;-77
2022/03/29 08:09:29;;;;;;;25.07;13.47;;;11.50;99.90;;;;;;5041510;28;20180;-77
2022/03/29 08:11:55;;;;;;;25.67;14.23;;;11.80;99.90;;;;;;5043251;28;20215;-77
2022/03/29 08:14:22;;;;;;;24.30;13.90;;;12.10;99.90;;;;;;5042446;28;20581;-77
2022/03/29 08:16:48;;;;;;;24.17;12.87;;;12.30;99.90;;;;;;5056390;23;20208;-76
2022/03/29 08:19:14;;;;;;;21.83;11.97;;;12.60;99.90;;;;;;5021988;28;20588;-79
2022/03/29 08:21:52;;;;;;;23.07;13.13;;;12.80;99.90;;;;;;5019726;28;20665;-78
2022/03/29 08:24:20;;;;;;;21.77;12.57;;;12.60;99.90;;;;;;5006682;28;20622;-78
2022/03/29 08:26:48;;;;;;;24.00;12.30;;;12.60;99.90;;;;;;5001651;28;20206;-79
2022/03/29 08:29:15;;;;;;;22.27;13.50;;;13.20;99.90;;;;;;4990271;28;20201;-80
2022/03/29 08:31:41;;;;;;;20.57;12.57;;;14.70;99.90;;;;;;4994505;28;20553;-79
2022/03/29 08:34:07;;;;;;;22.03;12.03;;;16.00;99.90;;;;;;5009418;28;20644;-79
2022/03/29 08:36:33;;;;;;;20.33;13.35;;;16.50;99.90;;;;;;5008389;28;20221;-79
2022/03/29 08:38:58;;;;;;;21.33;12.70;;;16.90;99.90;;;;;;4992933;28;20205;-79
2022/03/29 08:41:25;;;;;;;20.40;12.38;;;17.20;99.90;;;;;;5008920;28;20206;-80
2022/03/29 08:43:52;;;;;;;22.27;12.88;;;17.00;99.90;;;;;;4993653;28;20631;-79
2022/03/29 08:46:19;;;;;;;22.17;12.93;;;16.50;99.90;;;;;;4994307;28;20211;-79
2022/03/29 08:48:49;;;;;;;20.98;11.95;;;16.90;99.90;;;;;;5008660;28;20692;-80
2022/03/29 08:51:15;;;;;;;26.15;13.43;;;17.00;99.90;;;;;;4994493;28;20185;-79
2022/03/29 08:53:44;;;;;;;22.33;12.88;;;15.70;99.90;;;;;;5010125;28;20309;-79
2022/03/29 08:56:09;;;;;;;22.58;13.27;;;16.10;99.90;;;;;;5009232;28;20206;-80
2022/03/29 08:58:35;;;;;;;24.73;12.35;;;16.90;99.90;;;;;;5008702;28;20237;-80
2022/03/29 09:01:00;;;;;;;19.10;12.23;;;17.30;99.90;;;;;;4994107;28;20817;-79
2022/03/29 09:03:26;;;;;;;20.30;11.60;;;17.20;99.90;;;;;;5009977;28;20181;-80
2022/03/29 09:06:08;;;;;;;19.60;12.38;;;17.20;99.90;;;;;;5010195;28;20220;-81
2022/03/29 09:08:44;;;;;;;23.23;13.32;;;17.30;99.90;;;;;;4994726;28;20276;-78
2022/03/29 09:11:12;;;;;;;27.48;14.32;;;16.50;99.90;;;;;;4994817;28;20209;-80
2022/03/29 09:13:37;;;;;;;19.63;12.77;;;15.80;99.90;;;;;;4994341;28;20244;-80
2022/03/29 09:16:03;;;;;;;24.92;13.80;;;15.90;99.90;;;;;;5009751;28;20240;-79
2022/03/29 09:18:30;;;;;;;22.88;13.98;;;15.00;99.90;;;;;;5008271;28;20233;-80
2022/03/29 09:21:14;;;;;;;21.70;12.80;;;14.90;99.90;;;;;;5014924;28;20263;-78
2022/03/29 09:23:41;;;;;;;24.53;13.83;;;15.10;99.90;;;;;;5013753;28;20270;-80
2022/03/29 09:26:23;;;;;;;24.70;14.80;;;14.90;99.90;;;;;;5013889;28;20223;-79
2022/03/29 09:28:50;;;;;;;28.67;15.07;;;14.60;99.90;;;;;;5006244;28;20231;-80
2022/03/29 09:31:18;;;;;;;24.50;14.53;;;14.90;99.90;;;;;;5013621;28;20689;-79
2022/03/29 09:33:43;;;;;;;25.87;14.47;;;15.20;99.90;;;;;;5012153;28;20719;-79
2022/03/29 09:36:12;;;;;;;21.30;13.43;;;14.60;99.90;;;;;;5029077;28;20236;-80
2022/03/29 09:38:41;;;;;;;25.23;14.40;;;14.80;99.90;;;;;;5027485;28;20227;-79
2022/03/29 09:41:27;;;;;;;21.47;13.87;;;15.00;99.90;;;;;;5029033;28;20196;-80
2022/03/29 09:44:06;;;;;;;23.13;14.33;;;15.50;99.90;;;;;;5012704;28;20269;-81
2022/03/29 09:46:59;;;;;;;23.10;13.30;;;15.60;99.90;;;;;;5013986;28;20239;-79
2022/03/29 09:49:25;;;;;;;22.73;13.23;;;15.40;99.90;;;;;;5015568;28;20217;-79
2022/03/29 09:52:17;;;;;;;26.33;13.53;;;15.10;99.90;;;;;;5033941;28;20220;-79
2022/03/29 09:55:03;;;;;;;20.40;12.60;;;15.50;99.90;;;;;;5017528;28;20184;-81
2022/03/29 09:57:38;;;;;;;18.52;11.35;;;15.30;99.90;;;;;;5026467;28;20236;-79
2022/03/29 10:00:09;;;;;;;23.23;10.83;;;15.10;99.90;;;;;;5027168;28;20608;-80
2022/03/29 10:02:37;;;;;;;25.77;11.93;;;14.60;99.90;;;;;;5008711;28;20289;-80
2022/03/29 10:05:03;;;;;;;20.90;11.53;;;15.00;99.90;;;;;;5013373;28;20261;-79
2022/03/29 10:07:34;;;;;;;23.67;13.03;;;14.70;99.90;;;;;;5012641;28;20222;-79
2022/03/29 10:10:00;;;;;;;20.03;12.07;;;14.00;99.90;;;;;;5013315;28;20217;-79
2022/03/29 10:12:26;;;;;;;18.80;12.60;;;14.30;99.90;;;;;;5014856;28;20198;-77
2022/03/29 10:14:54;;;;;;;20.43;11.27;;;14.80;99.90;;;;;;5009470;28;20208;-79
2022/03/29 10:17:20;;;;;;;17.80;11.97;;;14.50;99.90;;;;;;5033335;28;20208;-79
2022/03/29 10:19:47;;;;;;;18.00;10.00;;;14.80;99.90;;;;;;5024269;28;20594;-79
2022/03/29 10:22:13;;;;;;;16.77;10.13;;;14.70;99.90;;;;;;5011138;28;20205;-80
2022/03/29 10:24:39;;;;;;;16.50;10.60;;;14.50;99.90;;;;;;5016241;28;20177;-79
2022/03/29 10:27:05;;;;;;;18.17;12.17;;;14.80;99.90;;;;;;5017016;28;20852;-79
2022/03/29 10:29:31;;;;;;;18.23;11.17;;;14.80;99.90;;;;;;5031081;28;20201;-79
2022/03/29 10:32:05;;;;;;;19.47;12.10;;;14.50;99.90;;;;;;5016447;28;20216;-79
2022/03/29 10:34:32;;;;;;;22.17;12.77;;;14.80;99.90;;;;;;5031332;28;20205;-79
2022/03/29 10:37:14;;;;;;;21.27;12.83;;;14.70;99.90;;;;;;5016672;28;20217;-79
2022/03/29 10:39:47;;;;;;;23.30;11.80;;;14.50;99.90;;;;;;5031478;28;20370;-79
2022/03/29 10:42:49;;;;;;;20.20;12.40;;;14.80;99.90;;;;;;5010726;28;20281;-79
2022/03/29 10:45:20;;;;;;;19.40;13.53;;;14.70;99.90;;;;;;5031448;28;20205;-80
2022/03/29 10:47:58;;;;;;;18.27;12.80;;;14.30;99.90;;;;;;5015566;28;20267;-79
2022/03/29 10:50:50;;;;;;;19.43;12.03;;;14.50;99.90;;;;;;5030272;28;20205;-79
2022/03/29 10:53:37;;;;;;;19.27;11.87;;;14.60;99.90;;;;;;5030431;28;20209;-78
2022/03/29 10:56:15;;;;;;;17.20;11.87;;;14.10;99.90;;;;;;5024556;28;20201;-78
2022/03/29 10:59:02;;;;;;;21.57;11.77;;;14.10;99.90;;;;;;5030179;28;20351;-79
2022/03/29 11:01:33;;;;;;;18.47;11.17;;;14.00;99.90;;;;;;5014472;28;20209;-79
2022/03/29 11:04:00;;;;;;;17.93;11.70;;;14.40;99.90;;;;;;5030036;28;20667;-79
2022/03/29 11:06:25;;;;;;;18.00;10.73;;;14.80;99.90;;;;;;5014965;28;20184;-78
2022/03/29 11:09:03;;;;;;;19.97;11.23;;;14.60;99.90;;;;;;5029834;28;20209;-79
2022/03/29 11:11:40;;;;;;;15.60;10.10;;;15.00;99.90;;;;;;5030006;28;20250;-79
2022/03/29 11:14:27;;;;;;;19.13;10.63;;;15.10;99.90;;;;;;5007617;28;20579;-79
2022/03/29 11:17:21;;;;;;;16.53;10.60;;;14.80;99.90;;;;;;5007212;28;20621;-79
2022/03/29 11:19:50;;;;;;;17.43;8.57;;;14.90;99.90;;;;;;5028976;28;20240;-79
2022/03/29 11:22:22;;;;;;;14.93;8.70;;;15.10;99.90;;;;;;5036647;28;20257;-79
2022/03/29 11:24:53;;;;;;;14.13;8.47;;;15.20;99.90;;;;;;5014325;28;20646;-80
2022/03/29 11:27:23;;;;;;;12.10;7.80;;;15.40;99.90;;;;;;5015400;28;20689;-79
2022/03/29 11:29:49;;;;;;;14.68;7.72;;;15.00;99.90;;;;;;5006256;28;20780;-79
2022/03/29 11:32:17;;;;;;;14.27;6.97;;;14.70;99.90;;;;;;5014472;28;20250;-79
2022/03/29 11:34:45;;;;;;;11.00;7.20;;;14.40;99.90;;;;;;5031361;28;20204;-80
2022/03/29 11:37:29;;;;;;;9.23;5.60;;;14.70;99.70;;;;;;5026894;28;20208;-79
2022/03/29 11:39:55;;;;;;;8.02;4.43;;;14.60;97.70;;;;;;5007806;28;20209;-78
2022/03/29 11:42:21;;;;;;;7.67;5.70;;;14.20;97.00;;;;;;5023726;28;20552;-79
2022/03/29 11:44:48;;;;;;;12.77;5.10;;;13.90;97.50;;;;;;5023779;28;20205;-79
2022/03/29 11:47:13;;;;;;;8.33;5.87;;;13.90;97.20;;;;;;5023871;28;20215;-78
2022/03/29 11:49:41;;;;;;;11.03;6.07;;;14.20;97.60;;;;;;5043254;28;20296;-79
2022/03/29 11:52:12;;;;;;;10.77;5.70;;;14.40;97.80;;;;;;5035437;28;20635;-79
2022/03/29 11:54:47;;;;;;;11.73;6.57;;;14.20;98.10;;;;;;5032764;28;20182;-78
2022/03/29 11:57:38;;;;;;;12.70;6.30;;;14.10;98.30;;;;;;5019988;28;20211;-78
2022/03/29 12:00:23;;;;;;;8.67;5.93;;;14.40;97.90;;;;;;5015953;28;21845;-79
2022/03/29 12:02:48;;;;;;;7.33;5.10;;;14.30;97.80;;;;;;5019187;28;20220;-79
2022/03/29 12:05:22;;;;;;;8.87;5.07;;;14.50;97.40;;;;;;5017507;28;20564;-79
2022/03/29 12:07:47;;;;;;;8.50;5.30;;;14.60;97.10;;;;;;5005894;28;20249;-79
2022/03/29 12:10:34;;;;;;;11.20;4.67;;;14.40;97.40;;;;;;5028013;28;20290;-79
2022/03/29 12:13:01;;;;;;;11.18;4.47;;;14.50;97.20;;;;;;5005834;28;20701;-79
2022/03/29 12:15:26;;;;;;;9.32;4.90;;;14.90;96.40;;;;;;5013082;28;20185;-79
2022/03/29 12:20:44;;;;;;;8.30;4.07;;;14.40;95.50;;;;;;5012901;28;20320;-78
2022/03/29 12:23:30;;;;;;;8.07;4.10;;;14.20;95.40;;;;;;5027551;28;20685;-79
2022/03/29 12:25:56;;;;;;;9.27;4.47;;;14.20;95.60;;;;;;5005602;28;20591;-79
2022/03/29 12:28:23;;;;;;;10.73;4.80;;;13.70;96.20;;;;;;5011517;28;20224;-80
2022/03/29 12:30:49;;;;;;;7.90;3.77;;;13.90;97.50;;;;;;5012181;28;20201;-79
2022/03/29 12:33:15;;;;;;;8.87;3.47;;;14.00;95.80;;;;;;5012453;28;20201;-78
2022/03/29 12:35:41;;;;;;;11.03;4.27;;;13.90;95.50;;;;;;5011685;28;20212;-79
2022/03/29 12:38:11;;;;;;;9.47;4.07;;;14.20;95.60;;;;;;5012153;28;20208;-79
2022/03/29 12:40:37;;;;;;;12.17;6.43;;;14.50;95.60;;;;;;5027497;28;20717;-79
2022/03/29 12:43:07;;;;;;;9.17;4.93;;;14.30;96.50;;;;;;5013220;28;20217;-80
2022/03/29 12:45:34;;;;;;;8.30;4.70;;;13.80;97.00;;;;;;5027793;28;20180;-80
2022/03/29 12:48:04;;;;;;;10.37;4.83;;;14.00;97.40;;;;;;5012791;28;20205;-78
2022/03/29 12:50:30;;;;;;;16.00;5.77;;;14.10;97.70;;;;;;5027267;28;20235;-79